Time;durP1;ratioP1;P1;durP2;ratioP2;P2;SDS_P1;SDS_P2;PMS_P1;PMS_P2;Temp;Humidity;BMP_temperature;BMP_pressure;BME280_temperature;BME280_humidity;BME280_pressure;Samples;Min_cycle;Max_cycle;Signal;HPM_P1;HPM_P2
2021/06/22 00:02:04;;;;;;;3.47;3.27;;;20.90;99.90;;;;;;5096892;28;20276;-52
2021/06/22 00:04:29;;;;;;;3.60;3.30;;;20.80;99.90;;;;;;5096513;28;20250;-58
2021/06/22 00:06:55;;;;;;;4.00;3.60;;;20.90;99.90;;;;;;5096107;28;20173;-55
2021/06/22 00:09:21;;;;;;;6.80;5.17;;;20.80;99.90;;;;;;5096636;28;20177;-53
2021/06/22 00:11:46;;;;;;;4.33;3.97;;;20.80;99.90;;;;;;5096675;28;20193;-55
2021/06/22 00:14:12;;;;;;;4.33;3.93;;;20.80;99.90;;;;;;5096977;28;20193;-55
2021/06/22 00:16:38;;;;;;;5.10;4.10;;;20.90;99.90;;;;;;5097011;28;20269;-54
2021/06/22 00:19:03;;;;;;;4.10;3.80;;;20.90;99.90;;;;;;5096646;28;20181;-55
2021/06/22 00:21:29;;;;;;;4.17;3.87;;;21.00;99.90;;;;;;5096261;28;20172;-55
2021/06/22 00:23:54;;;;;;;7.87;3.90;;;21.00;99.90;;;;;;5095519;28;20201;-56
2021/06/22 00:26:20;;;;;;;3.90;3.60;;;21.00;99.90;;;;;;5096755;28;20165;-56
2021/06/22 00:28:46;;;;;;;7.30;5.10;;;21.10;99.90;;;;;;5095858;28;20172;-55
2021/06/22 00:31:12;;;;;;;5.83;3.73;;;21.10;99.90;;;;;;5096148;28;20219;-55
2021/06/22 00:33:38;;;;;;;4.37;3.60;;;21.10;99.90;;;;;;5095219;28;20602;-56
2021/06/22 00:36:05;;;;;;;5.57;3.60;;;21.00;99.90;;;;;;5096570;28;20533;-55
2021/06/22 00:38:30;;;;;;;5.47;4.50;;;20.90;99.90;;;;;;5096295;28;20410;-56
2021/06/22 00:40:56;;;;;;;4.57;4.17;;;20.90;99.90;;;;;;5078373;28;20403;-55
2021/06/22 00:43:21;;;;;;;4.73;4.10;;;20.90;99.90;;;;;;5099107;28;20193;-56
2021/06/22 00:45:47;;;;;;;5.30;4.00;;;20.90;99.90;;;;;;5096986;28;20637;-56
2021/06/22 00:48:13;;;;;;;4.70;4.10;;;21.00;99.90;;;;;;5095925;28;20248;-53
2021/06/22 00:50:38;;;;;;;4.23;3.83;;;21.00;99.90;;;;;;5095360;28;20170;-55
2021/06/22 00:53:07;;;;;;;3.70;3.30;;;21.00;99.90;;;;;;5095914;28;20250;-56
2021/06/22 00:55:33;;;;;;;4.70;4.20;;;21.10;99.90;;;;;;5095134;28;20193;-55
2021/06/22 00:58:04;;;;;;;5.00;4.60;;;21.00;99.90;;;;;;5096124;28;20402;-53
2021/06/22 01:00:30;;;;;;;5.13;3.80;;;21.00;99.90;;;;;;5096133;28;20400;-52
2021/06/22 01:02:57;;;;;;;7.60;4.37;;;21.10;99.90;;;;;;5096110;28;20959;-53
2021/06/22 01:05:24;;;;;;;4.80;4.40;;;21.10;99.90;;;;;;5095765;28;20395;-52
2021/06/22 01:07:55;;;;;;;4.77;4.37;;;21.20;99.90;;;;;;5095909;28;20494;-52
2021/06/22 01:10:25;;;;;;;5.30;4.23;;;21.20;99.90;;;;;;5095626;28;20410;-56
2021/06/22 01:12:52;;;;;;;3.80;3.50;;;21.10;99.90;;;;;;5095365;28;20454;-56
2021/06/22 01:15:28;;;;;;;4.73;3.60;;;21.10;99.90;;;;;;5095841;28;20827;-55
2021/06/22 01:17:57;;;;;;;4.37;3.83;;;21.20;99.90;;;;;;5077485;28;20395;-56
2021/06/22 01:20:29;;;;;;;4.43;4.03;;;21.20;99.90;;;;;;5095152;28;20404;-56
2021/06/22 01:22:55;;;;;;;4.30;3.90;;;21.20;99.90;;;;;;5095436;28;20962;-56
2021/06/22 01:25:21;;;;;;;4.13;3.67;;;21.30;99.90;;;;;;5095396;28;20441;-54
2021/06/22 01:27:47;;;;;;;3.93;3.53;;;21.20;99.90;;;;;;5094337;28;20995;-56
2021/06/22 01:30:13;;;;;;;6.20;4.30;;;21.30;99.90;;;;;;5085472;28;20408;-55
2021/06/22 01:32:39;;;;;;;4.13;3.83;;;21.30;99.90;;;;;;5074845;28;20204;-56
2021/06/22 01:35:06;;;;;;;3.73;3.43;;;21.30;99.90;;;;;;5074537;28;20953;-54
2021/06/22 01:37:31;;;;;;;4.10;3.77;;;21.20;99.90;;;;;;5074822;28;20166;-56
2021/06/22 01:40:03;;;;;;;4.23;3.83;;;21.10;99.90;;;;;;5091014;28;20560;-53
2021/06/22 01:42:28;;;;;;;6.07;3.90;;;21.10;99.90;;;;;;5095201;28;20165;-56
2021/06/22 01:44:54;;;;;;;3.97;3.17;;;21.10;99.90;;;;;;5095503;28;20888;-55
2021/06/22 01:47:20;;;;;;;4.33;4.00;;;21.00;99.90;;;;;;5095017;28;20169;-54
2021/06/22 01:49:45;;;;;;;4.67;4.30;;;20.90;99.90;;;;;;5094883;28;20184;-56
2021/06/22 01:52:16;;;;;;;3.97;3.67;;;20.90;99.90;;;;;;5094794;28;20525;-55
2021/06/22 01:54:41;;;;;;;5.03;4.43;;;20.80;99.90;;;;;;5093989;28;20646;-55
2021/06/22 01:57:07;;;;;;;6.33;4.03;;;20.70;99.90;;;;;;5095004;28;20458;-56
2021/06/22 01:59:33;;;;;;;5.33;4.80;;;20.70;99.90;;;;;;5076499;28;20214;-56
2021/06/22 02:01:58;;;;;;;4.70;4.30;;;20.60;99.90;;;;;;5094432;28;20173;-55
2021/06/22 02:04:24;;;;;;;4.57;4.17;;;20.40;99.90;;;;;;5094443;28;20193;-56
2021/06/22 02:06:50;;;;;;;6.83;5.10;;;20.30;99.90;;;;;;5094620;28;20181;-53
2021/06/22 02:09:15;;;;;;;5.30;4.90;;;20.10;99.90;;;;;;5094112;28;20193;-56
2021/06/22 02:11:41;;;;;;;6.00;4.43;;;20.10;99.90;;;;;;5094709;28;20208;-56
2021/06/22 02:14:06;;;;;;;5.07;4.27;;;20.00;99.90;;;;;;5094684;28;20198;-56
2021/06/22 02:16:33;;;;;;;4.93;3.77;;;20.00;99.90;;;;;;5094563;28;20169;-56
2021/06/22 02:18:59;;;;;;;5.80;4.50;;;20.00;99.90;;;;;;5094629;28;20634;-56
2021/06/22 02:21:25;;;;;;;4.10;3.80;;;20.00;99.90;;;;;;5094579;28;20452;-55
2021/06/22 02:23:51;;;;;;;4.40;4.10;;;20.10;99.90;;;;;;5093652;28;20431;-54
2021/06/22 02:26:16;;;;;;;6.37;5.13;;;20.10;99.90;;;;;;5094344;28;20672;-56
2021/06/22 02:28:42;;;;;;;7.20;5.13;;;20.10;99.90;;;;;;5094545;28;20698;-56
2021/06/22 02:31:08;;;;;;;4.70;4.30;;;20.00;99.90;;;;;;5094567;28;20228;-56
2021/06/22 02:33:33;;;;;;;5.07;4.43;;;20.00;99.90;;;;;;5094156;28;20260;-56
2021/06/22 02:35:59;;;;;;;4.30;3.87;;;20.00;99.90;;;;;;5094084;28;20626;-55
2021/06/22 02:38:25;;;;;;;5.90;5.10;;;20.10;99.90;;;;;;5093582;28;20176;-56
2021/06/22 02:40:50;;;;;;;6.73;4.57;;;20.00;99.90;;;;;;5094028;28;20650;-56
2021/06/22 02:43:16;;;;;;;8.30;4.67;;;20.00;99.90;;;;;;5092894;28;20185;-55
2021/06/22 02:45:42;;;;;;;4.57;4.17;;;19.90;99.90;;;;;;5094174;28;20530;-55
2021/06/22 02:48:10;;;;;;;6.00;5.50;;;20.00;99.90;;;;;;5093635;28;20395;-53
2021/06/22 02:50:36;;;;;;;6.37;5.83;;;20.10;99.90;;;;;;5094076;28;20248;-56
2021/06/22 02:53:02;;;;;;;5.93;4.70;;;20.00;99.90;;;;;;5096378;28;20455;-56
2021/06/22 02:55:28;;;;;;;5.53;5.07;;;20.10;99.90;;;;;;5093483;28;20439;-56
2021/06/22 02:57:56;;;;;;;5.10;4.70;;;20.00;99.90;;;;;;5093832;28;20453;-56
2021/06/22 03:00:24;;;;;;;7.53;5.23;;;20.00;99.90;;;;;;5093823;28;20169;-55
2021/06/22 03:05:21;;;;;;;7.07;5.60;;;20.00;99.90;;;;;;5072314;28;20491;-53
2021/06/22 03:07:47;;;;;;;5.10;4.70;;;20.00;99.90;;;;;;5073147;28;20936;-56
2021/06/22 03:10:15;;;;;;;6.47;5.87;;;20.00;99.90;;;;;;5072917;28;20548;-55
2021/06/22 03:12:41;;;;;;;5.43;4.93;;;20.00;99.90;;;;;;5072450;28;20447;-57
2021/06/22 03:15:10;;;;;;;6.13;4.73;;;20.00;99.90;;;;;;5072735;28;20817;-57
2021/06/22 03:17:36;;;;;;;5.07;4.50;;;20.10;99.90;;;;;;5073265;28;20858;-56
2021/06/22 03:20:08;;;;;;;5.20;4.70;;;20.00;99.90;;;;;;5072994;28;20483;-57
2021/06/22 03:22:34;;;;;;;5.73;5.10;;;20.00;99.90;;;;;;5073273;28;20406;-55
2021/06/22 03:25:00;;;;;;;5.00;4.60;;;20.00;99.90;;;;;;5071128;28;20436;-56
2021/06/22 03:27:25;;;;;;;6.53;5.13;;;20.10;99.90;;;;;;5072696;28;20435;-56
2021/06/22 03:29:51;;;;;;;5.37;4.73;;;20.10;99.90;;;;;;5072899;28;20166;-56
2021/06/22 03:32:17;;;;;;;6.20;5.60;;;20.10;99.90;;;;;;5073057;28;20193;-56
2021/06/22 03:34:42;;;;;;;5.47;5.03;;;20.00;99.90;;;;;;5072686;28;20189;-55
2021/06/22 03:37:08;;;;;;;5.40;5.00;;;19.80;99.90;;;;;;5073084;28;20190;-57
2021/06/22 03:39:34;;;;;;;5.83;5.23;;;20.00;99.90;;;;;;5072578;28;20197;-56
2021/06/22 03:42:00;;;;;;;6.77;5.17;;;20.10;99.90;;;;;;5072798;28;20181;-58
2021/06/22 03:44:26;;;;;;;5.50;5.03;;;20.00;99.90;;;;;;5072698;28;20420;-54
2021/06/22 03:46:51;;;;;;;5.97;5.30;;;20.10;99.90;;;;;;5073242;28;20642;-54
2021/06/22 03:49:17;;;;;;;7.00;6.10;;;20.20;99.90;;;;;;5073044;28;20174;-56
2021/06/22 03:51:43;;;;;;;6.43;5.83;;;20.20;99.90;;;;;;5072856;28;20189;-57
2021/06/22 03:54:08;;;;;;;5.80;5.30;;;20.20;99.90;;;;;;5072227;28;20214;-56
2021/06/22 03:56:34;;;;;;;6.53;5.20;;;20.10;99.90;;;;;;5072570;28;20532;-56
2021/06/22 03:59:00;;;;;;;7.10;6.40;;;20.30;99.90;;;;;;5072849;28;20618;-53
2021/06/22 04:01:25;;;;;;;6.00;5.40;;;20.20;99.90;;;;;;5072660;28;20228;-55
2021/06/22 04:03:51;;;;;;;5.90;5.40;;;20.20;99.90;;;;;;5072406;28;20297;-55
2021/06/22 04:06:16;;;;;;;5.30;4.83;;;20.20;99.90;;;;;;5071555;28;20749;-54
2021/06/22 04:08:42;;;;;;;8.07;7.23;;;20.20;99.90;;;;;;5072241;28;20220;-56
2021/06/22 04:11:09;;;;;;;6.23;5.63;;;20.30;99.90;;;;;;5072352;28;20204;-56
2021/06/22 04:13:36;;;;;;;6.03;5.53;;;20.40;99.90;;;;;;5072438;28;20212;-52
2021/06/22 04:16:02;;;;;;;5.20;4.80;;;20.50;99.90;;;;;;5072454;28;20392;-54
2021/06/22 04:18:27;;;;;;;5.13;4.73;;;20.50;99.90;;;;;;5072553;28;20403;-56
2021/06/22 04:20:53;;;;;;;5.67;5.10;;;20.60;99.90;;;;;;5070338;28;20169;-55
2021/06/22 04:23:19;;;;;;;6.77;5.00;;;20.70;99.90;;;;;;5061076;28;20194;-56
2021/06/22 04:25:45;;;;;;;5.40;5.00;;;20.70;99.90;;;;;;5055153;28;20199;-56
2021/06/22 04:28:11;;;;;;;5.13;4.63;;;20.70;99.90;;;;;;5056199;28;20479;-56
2021/06/22 04:30:38;;;;;;;8.10;5.70;;;20.80;99.90;;;;;;5055923;28;20169;-55
2021/06/22 04:33:05;;;;;;;6.40;5.20;;;20.80;99.90;;;;;;5058523;28;20792;-53
2021/06/22 04:35:31;;;;;;;5.77;5.27;;;20.70;99.90;;;;;;5075715;28;20392;-57
2021/06/22 04:38:01;;;;;;;9.00;5.00;;;20.70;99.90;;;;;;5075716;28;20775;-55
2021/06/22 04:40:27;;;;;;;6.00;5.40;;;20.60;99.90;;;;;;5075696;28;20483;-57
2021/06/22 04:42:52;;;;;;;5.20;4.80;;;20.60;99.90;;;;;;5075631;28;20403;-52
2021/06/22 04:45:18;;;;;;;5.70;5.27;;;20.50;99.90;;;;;;5074634;28;20415;-56
2021/06/22 04:47:44;;;;;;;6.87;6.07;;;20.50;99.90;;;;;;5075427;28;20568;-54
2021/06/22 04:50:10;;;;;;;6.80;6.23;;;20.50;99.90;;;;;;5078078;28;20532;-55
2021/06/22 04:52:37;;;;;;;6.00;5.50;;;20.40;99.90;;;;;;5075581;28;20578;-55
2021/06/22 04:55:04;;;;;;;9.57;8.60;;;20.50;99.90;;;;;;5075147;28;20478;-56
2021/06/22 04:57:30;;;;;;;13.03;11.57;;;20.60;99.90;;;;;;5075324;28;20451;-53
2021/06/22 04:59:57;;;;;;;14.67;11.37;;;20.50;99.90;;;;;;5074990;28;20893;-55
2021/06/22 05:02:22;;;;;;;12.13;10.97;;;20.60;99.90;;;;;;5074983;28;20253;-53
2021/06/22 05:04:48;;;;;;;15.17;13.77;;;20.60;99.90;;;;;;5075099;28;20537;-55
2021/06/22 05:07:14;;;;;;;12.97;11.77;;;20.50;99.90;;;;;;5075339;28;20174;-56
2021/06/22 05:09:39;;;;;;;13.80;12.47;;;20.80;99.90;;;;;;5073708;28;20174;-56
2021/06/22 05:12:05;;;;;;;11.93;10.90;;;20.70;99.90;;;;;;5075235;28;20701;-55
2021/06/22 05:14:31;;;;;;;12.73;11.60;;;20.90;99.90;;;;;;5074751;28;20189;-53
2021/06/22 05:16:57;;;;;;;12.03;10.93;;;21.10;99.90;;;;;;5075367;28;20404;-50
2021/06/22 05:19:22;;;;;;;12.50;10.80;;;20.80;99.90;;;;;;5074197;28;20254;-55
2021/06/22 05:21:48;;;;;;;14.00;12.27;;;20.80;99.90;;;;;;5074822;28;20495;-55
2021/06/22 05:24:15;;;;;;;14.07;12.87;;;21.10;99.90;;;;;;5074639;28;20197;-56
2021/06/22 05:26:40;;;;;;;11.47;10.30;;;21.10;99.90;;;;;;5074709;28;20248;-57
2021/06/22 05:29:06;;;;;;;12.90;11.60;;;21.20;99.90;;;;;;5074663;28;20428;-58
2021/06/22 05:31:32;;;;;;;12.30;11.10;;;21.20;99.90;;;;;;5074583;28;20692;-56
2021/06/22 05:33:57;;;;;;;16.50;14.97;;;21.30;99.90;;;;;;5074929;28;20624;-53
2021/06/22 05:36:23;;;;;;;12.10;11.00;;;21.10;99.90;;;;;;5074401;28;20501;-54
2021/06/22 05:38:49;;;;;;;13.60;12.50;;;21.10;99.90;;;;;;5056665;28;20166;-55
2021/06/22 05:41:15;;;;;;;12.30;11.10;;;21.20;99.90;;;;;;5074882;28;20170;-55
2021/06/22 05:43:40;;;;;;;13.50;12.07;;;21.20;99.90;;;;;;5073653;28;20194;-53
2021/06/22 05:46:06;;;;;;;11.00;10.10;;;21.40;99.90;;;;;;5074478;28;20488;-57
2021/06/22 05:48:31;;;;;;;15.00;13.63;;;21.60;99.90;;;;;;5074354;28;20170;-54
2021/06/22 05:50:57;;;;;;;11.37;10.37;;;21.60;99.90;;;;;;5075183;28;20697;-55
2021/06/22 05:53:23;;;;;;;10.80;9.83;;;21.70;99.90;;;;;;5074058;28;20189;-57
2021/06/22 05:55:49;;;;;;;11.80;9.40;;;21.80;99.90;;;;;;5074122;28;20255;-57
2021/06/22 05:58:15;;;;;;;10.67;9.77;;;22.00;99.90;;;;;;5074239;28;20162;-53
2021/06/22 06:00:40;;;;;;;11.47;10.47;;;22.20;99.90;;;;;;5074897;28;20407;-56
2021/06/22 06:03:06;;;;;;;12.10;11.00;;;22.20;99.90;;;;;;5073696;28;20424;-54
2021/06/22 06:05:32;;;;;;;10.97;9.60;;;22.20;99.90;;;;;;5072776;28;20224;-53
2021/06/22 06:07:58;;;;;;;10.93;9.90;;;22.30;99.90;;;;;;5073905;28;20166;-52
2021/06/22 06:10:24;;;;;;;10.83;8.17;;;22.30;99.90;;;;;;5073706;28;20812;-54
2021/06/22 06:12:51;;;;;;;9.30;8.63;;;22.30;99.90;;;;;;5073849;28;20642;-57
2021/06/22 06:15:17;;;;;;;8.20;7.50;;;22.40;99.90;;;;;;5074080;28;20408;-55
2021/06/22 06:17:43;;;;;;;8.00;7.23;;;22.40;99.90;;;;;;5073324;28;20415;-57
2021/06/22 06:20:11;;;;;;;11.20;8.13;;;22.30;99.90;;;;;;5073428;28;20972;-54
2021/06/22 06:22:37;;;;;;;8.67;7.97;;;22.40;99.90;;;;;;5073857;28;20197;-53
2021/06/22 06:25:07;;;;;;;8.87;8.07;;;22.30;99.90;;;;;;5074493;28;20432;-56
2021/06/22 06:27:39;;;;;;;9.80;9.00;;;22.20;99.90;;;;;;5073315;28;20405;-54
2021/06/22 06:30:08;;;;;;;10.33;9.43;;;22.00;99.90;;;;;;5073563;28;20384;-52
2021/06/22 06:32:34;;;;;;;9.87;8.90;;;22.00;99.90;;;;;;5073343;28;20444;-54
2021/06/22 06:34:59;;;;;;;8.50;7.70;;;22.00;99.90;;;;;;5073371;28;20451;-56
2021/06/22 06:37:26;;;;;;;9.37;7.93;;;22.00;99.90;;;;;;5073726;28;20411;-52
2021/06/22 06:39:51;;;;;;;7.83;7.20;;;22.10;99.90;;;;;;5073432;28;20219;-55
2021/06/22 06:42:17;;;;;;;10.23;9.20;;;22.10;99.90;;;;;;5073295;28;20400;-54
2021/06/22 06:44:42;;;;;;;10.57;9.70;;;22.20;99.90;;;;;;5073075;28;20190;-55
2021/06/22 06:47:08;;;;;;;13.70;10.03;;;22.00;99.90;;;;;;5073374;28;20295;-54
2021/06/22 06:49:36;;;;;;;10.07;9.07;;;22.00;99.90;;;;;;5074917;28;20180;-53
2021/06/22 06:52:03;;;;;;;12.03;10.80;;;22.10;99.90;;;;;;5073174;28;20240;-55
2021/06/22 06:54:29;;;;;;;12.20;11.00;;;22.10;99.90;;;;;;5072213;28;20446;-55
2021/06/22 06:56:55;;;;;;;10.50;9.53;;;22.20;99.90;;;;;;5072712;28;20762;-54
2021/06/22 06:59:21;;;;;;;10.40;9.40;;;22.20;99.90;;;;;;5072057;28;20548;-52
2021/06/22 07:01:46;;;;;;;14.17;10.07;;;22.30;99.90;;;;;;5073128;28;20407;-56
2021/06/22 07:04:12;;;;;;;10.93;10.03;;;22.10;99.90;;;;;;5072960;28;20606;-54
2021/06/22 07:06:38;;;;;;;10.97;9.97;;;22.00;99.90;;;;;;5073157;28;20174;-54
2021/06/22 07:09:04;;;;;;;13.97;11.00;;;22.20;99.90;;;;;;5073414;28;20646;-56
2021/06/22 07:11:29;;;;;;;13.70;10.30;;;22.30;99.90;;;;;;5073356;28;20531;-53
2021/06/22 07:13:56;;;;;;;12.40;9.63;;;22.50;99.90;;;;;;5068744;28;20863;-55
2021/06/22 07:16:21;;;;;;;10.63;9.63;;;22.60;99.90;;;;;;5061791;28;20185;-55
2021/06/22 07:18:47;;;;;;;10.53;9.70;;;22.50;99.90;;;;;;5053124;28;20398;-55
2021/06/22 07:21:13;;;;;;;11.10;10.00;;;22.50;99.90;;;;;;5052944;28;20170;-55
2021/06/22 07:23:40;;;;;;;9.97;9.03;;;22.50;99.90;;;;;;5052983;28;20425;-53
2021/06/22 07:26:05;;;;;;;10.80;9.13;;;22.80;99.90;;;;;;5053065;28;20405;-54
2021/06/22 07:28:31;;;;;;;12.20;10.73;;;23.20;99.90;;;;;;5057108;28;20416;-52
2021/06/22 07:30:57;;;;;;;11.93;10.53;;;23.50;99.90;;;;;;5072854;28;20253;-57
2021/06/22 07:33:22;;;;;;;9.20;8.30;;;23.50;99.90;;;;;;5072643;28;20208;-57
2021/06/22 07:35:48;;;;;;;9.07;8.07;;;23.60;99.90;;;;;;5073165;28;20162;-54
2021/06/22 07:38:14;;;;;;;9.60;8.63;;;23.90;99.90;;;;;;5072903;28;20166;-53
2021/06/22 07:40:40;;;;;;;11.93;9.10;;;24.10;99.90;;;;;;5072688;28;20523;-54
2021/06/22 07:43:05;;;;;;;8.37;7.70;;;24.30;99.90;;;;;;5072485;28;20269;-56
2021/06/22 07:45:31;;;;;;;10.10;7.13;;;24.20;99.90;;;;;;5071772;28;20506;-57
2021/06/22 07:47:57;;;;;;;10.80;8.80;;;24.30;99.90;;;;;;5072363;28;20168;-55
2021/06/22 07:50:24;;;;;;;9.00;7.17;;;24.10;99.90;;;;;;5072872;28;20412;-54
2021/06/22 07:52:50;;;;;;;9.53;8.60;;;24.00;99.90;;;;;;5072574;28;20198;-56
2021/06/22 07:55:16;;;;;;;10.53;7.53;;;24.00;99.90;;;;;;5072032;28;20933;-54
2021/06/22 07:57:44;;;;;;;5.07;4.67;;;24.00;99.90;;;;;;5072481;28;20400;-55
2021/06/22 08:03:10;;;;;;;5.67;5.10;;;23.90;99.90;;;;;;5075241;28;20391;-54
2021/06/22 08:05:37;;;;;;;6.33;5.17;;;24.30;99.90;;;;;;5075888;28;20396;-54
2021/06/22 08:08:03;;;;;;;12.40;7.50;;;24.00;99.90;;;;;;5076124;28;20489;-53
2021/06/22 08:10:29;;;;;;;5.97;5.43;;;23.70;99.90;;;;;;5077384;28;20497;-55
2021/06/22 08:12:54;;;;;;;5.10;4.27;;;23.50;99.90;;;;;;5075649;28;20444;-56
2021/06/22 08:15:20;;;;;;;6.67;4.10;;;23.50;99.90;;;;;;5076244;28;20162;-56
2021/06/22 08:17:46;;;;;;;5.20;4.80;;;23.40;99.90;;;;;;5076663;28;20177;-55
2021/06/22 08:20:12;;;;;;;4.43;4.03;;;23.20;99.90;;;;;;5075971;28;20166;-54
2021/06/22 08:22:38;;;;;;;5.73;4.17;;;23.00;99.90;;;;;;5076212;28;20199;-55
2021/06/22 08:25:06;;;;;;;5.60;4.50;;;22.80;99.90;;;;;;5075802;28;20473;-57
2021/06/22 08:27:32;;;;;;;5.33;4.30;;;23.00;99.90;;;;;;5075916;28;20399;-57
2021/06/22 08:29:57;;;;;;;4.27;3.90;;;23.20;99.90;;;;;;5075873;28;20458;-56
2021/06/22 08:32:23;;;;;;;4.73;4.27;;;23.20;99.90;;;;;;5075838;28;20201;-54
2021/06/22 08:34:49;;;;;;;5.90;5.40;;;23.40;99.90;;;;;;5076050;28;20190;-58
2021/06/22 08:37:15;;;;;;;4.30;3.90;;;23.50;99.90;;;;;;5075981;28;20173;-53
2021/06/22 08:39:40;;;;;;;5.00;4.60;;;23.70;99.90;;;;;;5075920;28;20173;-55
2021/06/22 08:42:09;;;;;;;5.27;4.70;;;23.60;99.90;;;;;;5075739;28;20400;-53
2021/06/22 08:44:35;;;;;;;7.50;6.33;;;23.70;99.90;;;;;;5075854;28;20200;-56
2021/06/22 08:47:01;;;;;;;7.80;6.23;;;23.70;99.90;;;;;;5075706;28;20487;-53
2021/06/22 08:49:28;;;;;;;5.30;4.20;;;23.40;99.90;;;;;;5074434;28;20582;-53
2021/06/22 08:51:55;;;;;;;4.53;4.13;;;23.30;99.90;;;;;;5075716;28;20448;-55
2021/06/22 08:54:21;;;;;;;5.00;4.60;;;23.30;99.90;;;;;;5075764;28;20416;-56
2021/06/22 08:56:47;;;;;;;7.43;6.63;;;23.30;99.90;;;;;;5077639;28;20402;-52
2021/06/22 08:59:13;;;;;;;9.93;6.97;;;23.30;99.90;;;;;;5075498;28;20397;-53
2021/06/22 09:01:38;;;;;;;7.87;6.70;;;23.30;99.90;;;;;;5075976;28;20170;-55
2021/06/22 09:04:04;;;;;;;13.30;7.70;;;23.30;99.90;;;;;;5095337;22;20225;-56
2021/06/22 09:06:40;;;;;;;4.90;4.50;;;23.10;99.90;;;;;;5095735;28;20205;-52
2021/06/22 09:09:08;;;;;;;4.70;3.40;;;23.20;99.90;;;;;;5095817;28;20153;-52
2021/06/22 09:11:34;;;;;;;6.03;4.20;;;23.30;99.90;;;;;;5095912;28;20454;-54
2021/06/22 09:14:05;;;;;;;3.50;3.00;;;23.30;99.90;;;;;;5096452;28;20433;-53
2021/06/22 09:16:32;;;;;;;3.70;3.17;;;23.30;99.90;;;;;;5095684;28;20399;-53
2021/06/22 09:19:09;;;;;;;4.57;3.73;;;23.30;99.90;;;;;;5095741;28;20411;-52
2021/06/22 09:21:41;;;;;;;3.60;3.30;;;23.20;99.90;;;;;;5095535;28;20925;-53
2021/06/22 09:24:18;;;;;;;6.03;5.50;;;23.40;99.90;;;;;;5096131;28;20419;-55
2021/06/22 09:26:47;;;;;;;6.40;5.80;;;23.60;99.90;;;;;;5095423;28;20382;-51
2021/06/22 09:29:15;;;;;;;6.10;5.50;;;23.50;99.90;;;;;;5076620;28;20415;-51
2021/06/22 09:31:59;;;;;;;7.37;6.67;;;23.60;99.90;;;;;;5095367;28;20450;-53
2021/06/22 09:34:27;;;;;;;7.70;6.47;;;23.50;99.90;;;;;;5094857;28;20427;-51
2021/06/22 09:37:04;;;;;;;12.00;7.63;;;23.30;99.90;;;;;;5095134;28;20406;-55
2021/06/22 09:39:30;;;;;;;8.67;7.83;;;22.90;99.90;;;;;;5094921;28;20372;-53
2021/06/22 09:41:57;;;;;;;8.40;7.70;;;22.80;99.90;;;;;;5076503;28;20431;-55
2021/06/22 09:44:25;;;;;;;9.03;8.23;;;22.90;99.90;;;;;;5094416;28;20200;-54
2021/06/22 09:46:59;;;;;;;10.30;9.17;;;23.00;99.90;;;;;;5094512;28;20556;-55
2021/06/22 09:49:31;;;;;;;9.63;8.80;;;23.20;99.90;;;;;;5093633;28;20430;-54
2021/06/22 09:52:07;;;;;;;8.70;7.80;;;23.10;99.90;;;;;;5094403;28;20443;-55
2021/06/22 09:54:35;;;;;;;10.17;9.23;;;23.00;99.90;;;;;;5094332;28;20909;-55
2021/06/22 09:57:27;;;;;;;8.90;7.80;;;23.40;99.90;;;;;;5094438;28;20403;-55
2021/06/22 10:00:11;;;;;;;9.00;8.30;;;23.70;99.90;;;;;;5089676;28;20416;-55
2021/06/22 10:02:58;;;;;;;9.20;8.30;;;23.70;99.90;;;;;;5094602;28;20395;-55
2021/06/22 10:05:24;;;;;;;8.30;7.60;;;23.40;99.90;;;;;;5092958;28;20600;-53
2021/06/22 10:08:02;;;;;;;8.80;8.10;;;23.10;99.90;;;;;;5084503;28;20960;-56
2021/06/22 10:10:39;;;;;;;8.10;7.40;;;23.00;99.90;;;;;;5074583;28;20528;-55
2021/06/22 10:13:05;;;;;;;9.40;8.50;;;23.20;99.90;;;;;;5074166;28;20440;-55
2021/06/22 10:15:31;;;;;;;8.87;8.10;;;23.00;99.90;;;;;;5074063;28;20416;-55
2021/06/22 10:17:57;;;;;;;9.07;8.27;;;23.10;99.90;;;;;;5074176;28;20493;-55
2021/06/22 10:20:22;;;;;;;9.00;8.27;;;23.40;99.90;;;;;;5074052;28;20169;-52
2021/06/22 10:22:49;;;;;;;7.83;7.10;;;23.60;99.90;;;;;;5074174;28;20579;-53
2021/06/22 10:25:15;;;;;;;7.60;6.90;;;23.70;99.90;;;;;;5094080;28;20203;-54
2021/06/22 10:27:41;;;;;;;8.03;7.43;;;23.60;99.90;;;;;;5094129;28;20479;-51
2021/06/22 10:30:09;;;;;;;9.73;8.93;;;23.80;99.90;;;;;;5094593;28;20406;-54
2021/06/22 10:32:35;;;;;;;7.70;6.97;;;23.50;99.90;;;;;;5094332;28;20216;-54
2021/06/22 10:35:12;;;;;;;9.80;8.90;;;23.40;99.90;;;;;;5091163;28;20467;-55
2021/06/22 10:37:42;;;;;;;8.20;7.40;;;23.40;99.90;;;;;;5089081;28;20167;-52
2021/06/22 10:40:11;;;;;;;8.63;7.73;;;23.40;99.90;;;;;;5088281;28;20918;-52
2021/06/22 10:42:47;;;;;;;7.47;6.80;;;23.20;99.90;;;;;;5093921;28;20410;-54
2021/06/22 10:45:13;;;;;;;7.30;6.70;;;22.90;99.90;;;;;;5093773;28;20445;-55
2021/06/22 10:47:43;;;;;;;9.60;6.37;;;22.50;99.90;;;;;;5106070;28;20497;-55
2021/06/22 10:50:23;;;;;;;7.03;6.40;;;22.40;99.90;;;;;;5114116;28;20390;-51
2021/06/22 10:53:08;;;;;;;6.90;6.40;;;22.40;99.90;;;;;;5112622;28;20441;-51
2021/06/22 10:55:35;;;;;;;5.50;5.10;;;22.30;99.90;;;;;;5093805;28;20476;-55
2021/06/22 11:00:50;;;;;;;7.90;5.30;;;22.40;99.90;;;;;;5094245;28;20396;-54
2021/06/22 11:03:31;;;;;;;7.33;5.60;;;22.40;99.90;;;;;;5076357;28;20399;-54
2021/06/22 11:06:12;;;;;;;6.47;5.67;;;22.30;99.90;;;;;;5093747;28;20415;-51
2021/06/22 11:08:42;;;;;;;7.10;6.50;;;22.20;99.90;;;;;;5093347;28;20372;-51
2021/06/22 11:11:08;;;;;;;6.37;5.77;;;22.20;99.90;;;;;;5094657;28;20876;-53
2021/06/22 11:13:55;;;;;;;7.20;6.50;;;22.10;99.90;;;;;;5093840;28;20426;-51
2021/06/22 11:16:21;;;;;;;6.70;6.00;;;21.60;99.90;;;;;;5093201;28;20637;-51
2021/06/22 11:18:52;;;;;;;8.17;7.47;;;21.40;99.90;;;;;;5093411;28;20402;-50
2021/06/22 11:21:38;;;;;;;8.90;8.10;;;21.40;99.90;;;;;;5093044;28;20298;-53
2021/06/22 11:24:07;;;;;;;8.07;7.47;;;21.40;99.90;;;;;;5093319;28;20435;-53
2021/06/22 11:26:44;;;;;;;9.00;7.90;;;21.20;99.90;;;;;;5093642;28;20399;-54
2021/06/22 11:29:15;;;;;;;8.87;7.97;;;21.00;99.90;;;;;;5093713;28;20411;-55
2021/06/22 11:31:45;;;;;;;9.07;8.17;;;21.00;99.90;;;;;;5093111;28;20473;-53
2021/06/22 11:34:20;;;;;;;7.70;7.00;;;21.00;99.90;;;;;;5075455;28;20434;-53
2021/06/22 11:36:50;;;;;;;7.27;6.57;;;21.00;99.90;;;;;;5097184;28;20398;-53
2021/06/22 11:39:30;;;;;;;8.23;7.43;;;21.00;99.90;;;;;;5097518;28;20391;-55
2021/06/22 11:42:11;;;;;;;6.07;5.57;;;21.00;99.90;;;;;;5097537;28;20375;-54
2021/06/22 11:44:41;;;;;;;6.97;5.83;;;20.90;99.90;;;;;;5097344;28;20415;-53
2021/06/22 11:47:12;;;;;;;7.20;6.50;;;20.90;99.90;;;;;;5097601;28;20474;-55
2021/06/22 11:49:47;;;;;;;6.17;5.57;;;20.80;99.90;;;;;;5097559;28;20748;-55
2021/06/22 11:52:15;;;;;;;6.90;6.30;;;20.90;99.90;;;;;;5096477;28;20510;-55
2021/06/22 11:54:46;;;;;;;6.63;6.03;;;21.00;99.90;;;;;;5078776;28;20484;-55
2021/06/22 11:57:21;;;;;;;7.13;6.33;;;20.90;99.90;;;;;;5096993;28;20453;-56
2021/06/22 11:59:48;;;;;;;7.90;7.10;;;21.00;99.90;;;;;;5078675;28;20406;-55
2021/06/22 12:02:15;;;;;;;7.57;6.50;;;21.00;99.90;;;;;;5096914;28;20497;-51
2021/06/22 12:04:41;;;;;;;6.70;6.13;;;21.10;99.90;;;;;;5095687;28;20991;-54
2021/06/22 12:07:10;;;;;;;10.10;6.57;;;21.00;99.90;;;;;;5096888;28;20492;-56
2021/06/22 12:09:39;;;;;;;6.57;5.97;;;21.00;99.90;;;;;;5096939;28;20407;-58
2021/06/22 12:12:05;;;;;;;6.27;5.77;;;20.90;99.90;;;;;;5096669;28;20567;-58
2021/06/22 12:14:31;;;;;;;5.87;4.87;;;20.80;99.90;;;;;;5096976;28;20786;-58
2021/06/22 12:16:58;;;;;;;6.10;5.43;;;20.80;99.90;;;;;;5097075;28;20399;-57
2021/06/22 12:19:25;;;;;;;7.10;5.60;;;20.80;99.90;;;;;;5096469;28;20414;-58
2021/06/22 12:21:53;;;;;;;5.80;4.77;;;20.80;99.90;;;;;;5096281;28;20434;-59
2021/06/22 12:24:20;;;;;;;5.80;5.20;;;20.70;99.90;;;;;;5096464;28;20502;-58
2021/06/22 12:26:49;;;;;;;6.00;5.47;;;20.70;99.90;;;;;;5096252;28;20544;-58
2021/06/22 12:29:20;;;;;;;6.40;5.80;;;20.70;99.90;;;;;;5096686;28;20411;-58
2021/06/22 12:31:57;;;;;;;6.70;5.10;;;20.70;99.90;;;;;;5096429;28;20453;-58
2021/06/22 12:34:29;;;;;;;5.53;5.00;;;20.60;99.90;;;;;;5096314;28;20842;-56
2021/06/22 12:36:56;;;;;;;6.90;5.93;;;20.50;99.90;;;;;;5095847;28;20384;-58
2021/06/22 12:39:25;;;;;;;6.83;6.13;;;20.60;99.90;;;;;;5078590;28;20407;-57
2021/06/22 12:41:51;;;;;;;7.33;6.57;;;20.60;99.90;;;;;;5077805;28;20419;-58
2021/06/22 12:44:26;;;;;;;7.50;6.80;;;20.40;99.90;;;;;;5098699;28;20434;-58
2021/06/22 12:46:52;;;;;;;7.17;6.30;;;20.50;99.90;;;;;;5094929;28;20522;-57
2021/06/22 12:49:25;;;;;;;7.40;6.70;;;20.40;99.90;;;;;;5096099;28;20412;-58
2021/06/22 12:51:55;;;;;;;10.47;7.50;;;20.20;99.90;;;;;;5095739;28;20212;-57
2021/06/22 12:54:26;;;;;;;12.83;8.17;;;19.90;99.90;;;;;;5096107;28;20419;-57